Time;durP1;ratioP1;P1;durP2;ratioP2;P2;SDS_P1;SDS_P2;PMS_P1;PMS_P2;Temp;Humidity;BMP_temperature;BMP_pressure;BME280_temperature;BME280_humidity;BME280_pressure;Samples;Min_cycle;Max_cycle;Signal;HPM_P1;HPM_P2
2021/12/30 00:01:07;;;;;;;17.32;13.62;;;;;;;10.50;29.30;98901.80;1781477;79;21684;-62
2021/12/30 00:03:34;;;;;;;20.77;13.32;;;;;;;10.77;28.98;98904.78;1765818;79;21544;-64
2021/12/30 00:06:00;;;;;;;21.30;13.90;;;;;;;10.64;29.21;98898.78;1771235;79;20885;-63
2021/12/30 00:08:27;;;;;;;19.40;13.78;;;;;;;10.81;29.18;98898.09;1781032;79;21157;-62
2021/12/30 00:10:57;;;;;;;19.95;14.53;;;;;;;10.88;29.00;98902.48;1779652;79;37398;-64
2021/12/30 00:13:24;;;;;;;18.82;12.73;;;;;;;10.80;29.04;98903.91;1773099;79;21038;-63
2021/12/30 00:15:51;;;;;;;19.73;13.48;;;;;;;10.87;28.96;98902.15;1775915;79;21007;-64
2021/12/30 00:18:18;;;;;;;20.00;14.70;;;;;;;10.79;29.01;98912.09;1788574;79;21113;-62
2021/12/30 00:20:44;;;;;;;16.37;13.30;;;;;;;10.89;28.82;98905.48;1773316;79;21142;-64
2021/12/30 00:23:10;;;;;;;19.30;14.28;;;;;;;10.63;29.22;98908.29;1772699;79;20935;-63
2021/12/30 00:25:40;;;;;;;19.77;14.05;;;;;;;10.43;29.45;98913.31;1777190;80;20930;-64
2021/12/30 00:28:13;;;;;;;19.25;13.50;;;;;;;10.49;29.47;98909.94;1778359;80;20976;-64
2021/12/30 00:30:42;;;;;;;20.62;13.95;;;;;;;10.53;29.46;98915.23;1778588;79;20959;-65
2021/12/30 00:33:08;;;;;;;19.20;13.32;;;;;;;10.56;29.48;98916.70;1761752;79;21162;-64
2021/12/30 00:35:36;;;;;;;20.30;14.25;;;;;;;10.71;29.35;98913.52;1782522;79;21013;-64
2021/12/30 00:38:03;;;;;;;16.02;12.80;;;;;;;10.64;29.34;98916.08;1765789;79;21494;-64
2021/12/30 00:40:30;;;;;;;18.42;13.20;;;;;;;10.53;29.39;98920.02;1778840;79;21048;-64
2021/12/30 00:42:56;;;;;;;17.12;13.43;;;;;;;10.62;29.38;98925.25;1782137;79;21018;-64
2021/12/30 00:45:22;;;;;;;15.90;12.63;;;;;;;10.63;29.31;98921.59;1765557;80;21110;-64
2021/12/30 00:47:49;;;;;;;17.55;13.28;;;;;;;10.54;29.45;98920.84;1771326;79;21457;-66
2021/12/30 00:50:16;;;;;;;19.35;13.30;;;;;;;10.53;29.45;98920.55;1790387;78;20962;-64
2021/12/30 00:52:43;;;;;;;20.35;13.68;;;;;;;10.65;29.43;98910.25;1788111;78;21524;-63
2021/12/30 00:55:10;;;;;;;19.65;14.40;;;;;;;10.76;29.34;98910.63;1806366;78;20935;-63
2021/12/30 00:57:37;;;;;;;20.62;14.70;;;;;;;10.70;29.39;98919.34;1798427;79;21147;-62
2021/12/30 01:00:06;;;;;;;17.42;13.20;;;;;;;10.67;29.42;98920.20;1806370;78;20977;-62
2021/12/30 01:02:35;;;;;;;20.17;14.13;;;;;;;10.73;29.41;98915.48;1804265;79;20982;-64
2021/12/30 01:05:01;;;;;;;20.30;13.80;;;;;;;10.77;29.34;98918.91;1807416;78;21035;-64
2021/12/30 01:07:28;;;;;;;19.60;12.85;;;;;;;10.60;29.46;98917.97;1781360;79;21547;-64
2021/12/30 01:09:54;;;;;;;19.52;13.55;;;;;;;10.52;29.62;98924.20;1787557;78;21063;-65
2021/12/30 01:12:21;;;;;;;18.23;13.72;;;;;;;10.56;29.56;98916.70;1797139;78;20914;-62
2021/12/30 01:14:48;;;;;;;19.80;13.55;;;;;;;10.69;29.54;98922.20;1803885;78;20935;-63
2021/12/30 01:17:22;;;;;;;16.52;13.93;;;;;;;10.68;29.49;98922.70;1796657;79;21044;-62
2021/12/30 01:19:44;;;;;;;22.13;15.55;;;;;;;10.74;29.50;98922.47;1797658;78;20883;-63
2021/12/30 01:22:18;;;;;;;18.23;14.33;;;;;;;10.81;29.47;98918.87;1802546;78;21244;-61
2021/12/30 01:24:45;;;;;;;20.43;13.85;;;;;;;10.93;29.36;98928.03;1786532;78;21055;-64
2021/12/30 01:27:12;;;;;;;17.80;13.60;;;;;;;11.00;29.33;98928.13;1796485;79;21008;-63
2021/12/30 01:29:39;;;;;;;19.10;14.20;;;;;;;11.06;29.23;98932.19;1798509;78;20970;-63
2021/12/30 01:32:06;;;;;;;19.23;13.53;;;;;;;10.95;29.30;98937.98;1803871;78;20931;-63
2021/12/30 01:34:33;;;;;;;19.27;13.98;;;;;;;10.94;29.49;98935.52;1791166;78;21961;-64
2021/12/30 01:37:01;;;;;;;18.87;13.90;;;;;;;11.07;29.42;98934.34;1801553;79;20918;-63
2021/12/30 01:39:29;;;;;;;19.05;13.85;;;;;;;11.04;29.32;98934.22;1792049;78;20998;-63
2021/12/30 01:41:58;;;;;;;19.00;13.75;;;;;;;11.10;29.24;98932.15;1754024;80;20963;-62
2021/12/30 01:44:24;;;;;;;19.95;14.07;;;;;;;11.15;29.15;98924.92;1734580;82;21010;-63
2021/12/30 01:46:51;;;;;;;19.57;13.72;;;;;;;11.11;29.28;98920.47;1736042;82;21144;-62
2021/12/30 01:49:18;;;;;;;20.10;14.13;;;;;;;11.26;29.06;98927.11;1744193;81;20880;-64
2021/12/30 01:51:44;;;;;;;22.52;14.15;;;;;;;11.04;29.35;98928.89;1734002;81;21526;-64
2021/12/30 01:54:12;;;;;;;17.62;13.58;;;;;;;11.04;29.35;98928.89;1737285;82;21559;-62
2021/12/30 01:56:38;;;;;;;20.77;15.10;;;;;;;11.07;29.18;98933.84;1788356;79;20955;-64
2021/12/30 01:59:04;;;;;;;21.52;13.83;;;;;;;11.07;29.28;98939.17;1790439;79;21149;-63
2021/12/30 02:01:31;;;;;;;21.30;15.75;;;;;;;11.00;29.36;98933.45;1799605;79;20943;-63
2021/12/30 02:03:57;;;;;;;20.68;14.83;;;;;;;10.95;29.46;98933.98;1797604;79;21093;-63
2021/12/30 02:06:24;;;;;;;20.77;15.10;;;;;;;10.93;29.53;98940.50;1795369;79;20974;-63
2021/12/30 02:08:52;;;;;;;21.68;14.68;;;;;;;10.87;29.54;98936.75;1801015;79;20952;-62
2021/12/30 02:11:22;;;;;;;21.82;15.40;;;;;;;10.84;29.56;98937.64;1794653;79;21966;-62
2021/12/30 02:13:51;;;;;;;18.52;14.87;;;;;;;10.84;29.56;98934.48;1787744;79;20867;-63
2021/12/30 02:16:20;;;;;;;19.98;14.20;;;;;;;10.93;29.58;98935.18;1785585;79;21607;-64
2021/12/30 02:18:49;;;;;;;20.17;14.93;;;;;;;11.02;29.52;98936.25;1787594;79;20905;-62
2021/12/30 02:21:16;;;;;;;23.57;15.60;;;;;;;11.08;29.44;98938.14;1791331;79;21001;-63
2021/12/30 02:23:43;;;;;;;22.50;14.87;;;;;;;11.10;29.40;98938.80;1781070;79;21123;-61
2021/12/30 02:26:15;;;;;;;19.37;14.60;;;;;;;11.04;29.45;98942.20;1791625;79;21422;-63
2021/12/30 02:28:41;;;;;;;22.17;15.65;;;;;;;11.02;29.54;98940.23;1795469;79;20993;-64
2021/12/30 02:31:23;;;;;;;21.55;15.78;;;;;;;11.11;29.43;98940.94;1785784;79;21529;-64
2021/12/30 02:33:50;;;;;;;20.12;15.28;;;;;;;11.14;29.41;98947.22;1797315;79;21408;-64
2021/12/30 02:36:21;;;;;;;20.27;14.30;;;;;;;11.10;29.48;98948.63;1795920;79;21149;-64
2021/12/30 02:38:48;;;;;;;19.85;14.65;;;;;;;11.15;29.47;98943.06;1797397;79;20884;-63
2021/12/30 02:41:18;;;;;;;19.73;15.25;;;;;;;11.09;29.45;98950.95;1798899;79;20970;-64
2021/12/30 02:43:48;;;;;;;23.85;15.20;;;;;;;11.15;29.48;98946.22;1786039;79;20852;-65
2021/12/30 02:46:15;;;;;;;23.57;15.35;;;;;;;11.20;29.43;98945.66;1790735;79;21029;-63
2021/12/30 02:48:42;;;;;;;20.10;15.05;;;;;;;11.25;29.37;98957.40;1796644;79;21973;-62
2021/12/30 02:51:11;;;;;;;19.00;14.25;;;;;;;11.34;29.28;98954.13;1789929;79;20908;-63
2021/12/30 02:53:38;;;;;;;18.55;14.30;;;;;;;11.28;29.34;98958.86;1791860;79;21438;-64
2021/12/30 02:56:06;;;;;;;20.60;15.13;;;;;;;11.43;29.25;98960.98;1788325;79;21038;-63
2021/12/30 02:58:32;;;;;;;19.35;14.65;;;;;;;11.30;29.33;98964.81;1797105;79;21007;-62
2021/12/30 03:01:06;;;;;;;20.85;15.40;;;;;;;11.35;29.35;98960.58;1795785;79;21505;-62
2021/12/30 03:03:32;;;;;;;21.12;15.23;;;;;;;11.40;29.38;98959.52;1790438;79;20966;-63
2021/12/30 03:06:02;;;;;;;20.43;15.23;;;;;;;11.48;29.23;98955.91;1790683;79;21553;-64
2021/12/30 03:08:29;;;;;;;20.97;14.25;;;;;;;11.40;29.26;98962.67;1794185;79;20935;-63
2021/12/30 03:10:56;;;;;;;21.15;15.78;;;;;;;11.34;29.37;98961.58;1793268;79;20935;-63
2021/12/30 03:13:43;;;;;;;22.17;14.83;;;;;;;11.34;29.37;98958.92;1791142;79;21151;-64
2021/12/30 03:15:53;;;;;;;21.17;14.68;;;;;;;11.41;29.36;98953.19;1787701;79;20949;-65
2021/12/30 03:18:20;;;;;;;19.57;15.58;;;;;;;11.38;29.32;98961.55;1791920;79;22338;-63
2021/12/30 03:20:46;;;;;;;17.80;14.53;;;;;;;11.22;29.52;98955.61;1790989;79;21054;-65
2021/12/30 03:23:13;;;;;;;20.27;14.70;;;;;;;11.36;29.44;98953.43;1802172;79;20910;-63
2021/12/30 03:25:40;;;;;;;20.88;15.08;;;;;;;11.36;29.44;98953.43;1785504;79;21322;-64
2021/12/30 03:28:06;;;;;;;18.90;13.80;;;;;;;11.26;29.57;98951.08;1784793;79;21564;-65
2021/12/30 03:30:33;;;;;;;19.75;15.10;;;;;;;11.15;29.67;98948.38;1780132;79;21486;-63
2021/12/30 03:32:59;;;;;;;21.05;15.45;;;;;;;11.01;29.92;98947.89;1802605;79;20911;-64
2021/12/30 03:35:26;;;;;;;17.82;14.25;;;;;;;11.02;30.01;98947.39;1783966;79;20931;-65
2021/12/30 03:37:53;;;;;;;20.25;15.32;;;;;;;11.00;30.07;98956.08;1781464;79;21239;-64
2021/12/30 03:40:19;;;;;;;21.62;15.40;;;;;;;11.08;29.96;98940.80;1792328;79;20847;-64
2021/12/30 03:42:45;;;;;;;21.10;14.68;;;;;;;11.12;29.97;98946.09;1797802;79;20962;-64
2021/12/30 03:45:13;;;;;;;22.42;15.93;;;;;;;11.27;29.85;98949.21;1795010;79;21474;-63
2021/12/30 03:47:44;;;;;;;20.52;15.78;;;;;;;11.25;29.80;98949.41;1793599;79;20951;-62
2021/12/30 03:50:18;;;;;;;20.85;15.08;;;;;;;11.21;29.81;98947.31;1782706;78;21144;-63
2021/12/30 03:52:43;;;;;;;22.27;15.90;;;;;;;11.22;29.81;98954.27;1795369;78;21033;-64
2021/12/30 03:55:10;;;;;;;22.65;16.42;;;;;;;11.23;29.91;98959.93;1794943;78;21397;-64
2021/12/30 03:57:36;;;;;;;20.50;14.55;;;;;;;11.28;29.84;98958.36;1795750;78;20935;-63
2021/12/30 04:00:05;;;;;;;20.43;14.33;;;;;;;11.43;29.76;98963.14;1782969;78;20989;-63
2021/12/30 04:02:32;;;;;;;20.43;14.80;;;;;;;11.43;29.71;98968.97;1785869;79;21085;-63
2021/12/30 04:04:58;;;;;;;22.80;16.27;;;;;;;11.43;29.71;98966.30;1789759;78;20978;-62
2021/12/30 04:07:25;;;;;;;22.13;15.70;;;;;;;11.53;29.63;98978.80;1796641;78;20931;-63
2021/12/30 04:09:51;;;;;;;27.52;17.60;;;;;;;11.59;29.58;98981.56;1747852;80;21022;-62
2021/12/30 04:12:20;;;;;;;25.23;17.00;;;;;;;11.65;29.45;98985.31;1793123;79;20876;-63
2021/12/30 04:14:47;;;;;;;25.20;16.40;;;;;;;11.63;29.51;98992.64;1775463;78;21156;-62
2021/12/30 04:17:14;;;;;;;22.70;16.48;;;;;;;11.74;29.36;98997.02;1789131;78;20951;-64
2021/12/30 04:19:40;;;;;;;25.43;17.75;;;;;;;11.70;29.40;98998.92;1774037;78;20959;-63
2021/12/30 04:22:06;;;;;;;24.92;17.95;;;;;;;11.60;29.48;98997.05;1787520;79;20902;-65
2021/12/30 04:24:34;;;;;;;21.25;16.77;;;;;;;11.76;29.40;98998.14;1785665;78;21458;-66
2021/12/30 04:27:00;;;;;;;28.12;18.48;;;;;;;11.76;29.40;98998.14;1787652;78;21647;-64
2021/12/30 04:29:27;;;;;;;27.02;18.10;;;;;;;11.86;29.24;99001.35;1755709;79;20892;-65
2021/12/30 04:31:53;;;;;;;28.75;19.87;;;;;;;11.86;29.24;99001.35;1783105;79;20904;-61
2021/12/30 04:34:19;;;;;;;26.30;17.87;;;;;;;11.73;29.32;99001.22;1790333;78;20931;-63
2021/12/30 04:36:46;;;;;;;27.10;18.48;;;;;;;11.57;29.36;99002.24;1783844;78;21418;-63
2021/12/30 04:39:13;;;;;;;29.23;18.82;;;;;;;11.56;29.54;99006.41;1780499;78;21159;-63
2021/12/30 04:41:40;;;;;;;26.45;18.20;;;;;;;11.46;29.65;99002.72;1779532;79;20879;-62
2021/12/30 04:44:06;;;;;;;26.17;17.70;;;;;;;11.85;29.55;99005.02;1787203;78;20975;-65
2021/12/30 04:46:35;;;;;;;25.25;17.60;;;;;;;11.85;29.55;99005.02;1781833;78;20966;-65
2021/12/30 04:49:01;;;;;;;25.60;17.02;;;;;;;12.45;28.59;99003.20;1773429;78;21067;-65
2021/12/30 04:51:28;;;;;;;28.50;17.82;;;;;;;12.13;28.95;99005.91;1803813;79;21125;-63
2021/12/30 04:53:58;;;;;;;24.27;16.82;;;;;;;11.95;29.17;99012.19;1795214;78;21000;-63
2021/12/30 04:56:26;;;;;;;27.70;19.00;;;;;;;11.92;29.31;99006.41;1807935;78;20891;-63
2021/12/30 04:58:53;;;;;;;25.85;18.37;;;;;;;11.97;28.95;99004.83;1799879;79;20947;-64
2021/12/30 05:01:19;;;;;;;29.25;19.42;;;;;;;11.94;29.25;99007.86;1801853;78;22376;-63
2021/12/30 05:03:46;;;;;;;36.33;20.82;;;;;;;11.93;29.32;99005.40;1802117;78;21152;-63
2021/12/30 05:06:12;;;;;;;29.42;18.23;;;;;;;12.03;28.99;99005.41;1795773;79;21041;-63
2021/12/30 05:08:38;;;;;;;29.30;18.98;;;;;;;12.03;28.99;99005.41;1810563;78;21551;-64
2021/12/30 05:11:06;;;;;;;26.62;18.55;;;;;;;11.84;29.28;99008.69;1801702;79;20986;-63
2021/12/30 05:13:32;;;;;;;28.12;18.45;;;;;;;11.90;29.43;99011.11;1803370;78;20969;-65
2021/12/30 05:15:59;;;;;;;27.98;18.10;;;;;;;11.90;29.43;99011.11;1806810;78;21393;-64
2021/12/30 05:18:31;;;;;;;28.75;18.32;;;;;;;11.93;29.41;99009.40;1805076;78;20954;-63
2021/12/30 05:20:54;;;;;;;27.30;18.98;;;;;;;12.09;29.34;99000.65;1801147;79;21449;-62
2021/12/30 05:23:20;;;;;;;27.52;18.48;;;;;;;12.25;29.18;99006.23;1796783;79;20894;-63
2021/12/30 05:25:48;;;;;;;26.45;18.32;;;;;;;12.26;29.05;99011.36;1807398;78;20883;-63
2021/12/30 05:28:14;;;;;;;30.62;19.45;;;;;;;11.87;29.45;99006.98;1803628;79;21091;-63
2021/12/30 05:30:40;;;;;;;27.15;18.35;;;;;;;11.87;29.45;99006.98;1800570;78;20898;-63
2021/12/30 05:33:07;;;;;;;25.47;17.83;;;;;;;11.81;29.68;99015.72;1757498;80;20998;-63
2021/12/30 05:35:33;;;;;;;26.75;17.82;;;;;;;11.75;29.88;99014.67;1793851;78;20935;-63
2021/12/30 05:38:02;;;;;;;26.15;18.37;;;;;;;11.72;29.97;99009.70;1765677;80;20883;-64
2021/12/30 05:40:28;;;;;;;27.13;17.65;;;;;;;11.83;29.87;99017.72;1763435;80;21157;-63
2021/12/30 05:42:55;;;;;;;29.60;19.55;;;;;;;11.83;29.87;99017.72;1749711;82;20970;-63
2021/12/30 05:45:21;;;;;;;30.55;18.90;;;;;;;11.96;29.82;99029.02;1732022;82;21624;-62
2021/12/30 05:47:50;;;;;;;24.60;17.52;;;;;;;11.96;29.76;99027.19;1733555;82;20952;-63
2021/12/30 05:50:21;;;;;;;26.00;18.17;;;;;;;11.76;29.97;99021.62;1751368;80;20997;-60
2021/12/30 05:52:49;;;;;;;25.75;17.60;;;;;;;11.76;30.05;99029.62;1751439;81;21821;-62
2021/12/30 05:55:16;;;;;;;28.45;18.92;;;;;;;11.87;30.04;99034.14;1737376;81;20923;-61
2021/12/30 05:57:44;;;;;;;27.25;17.85;;;;;;;11.81;30.05;99037.05;1751324;81;21050;-63
2021/12/30 06:00:14;;;;;;;32.90;19.05;;;;;;;11.73;30.34;99041.98;1746802;81;21087;-65
2021/12/30 06:02:40;;;;;;;30.88;20.75;;;;;;;11.73;30.34;99041.98;1757483;81;21002;-63
2021/12/30 06:05:08;;;;;;;28.55;17.73;;;;;;;11.80;30.19;99039.41;1739685;81;21125;-63
2021/12/30 06:07:36;;;;;;;31.48;19.92;;;;;;;11.93;30.20;99042.22;1755963;81;20879;-62
2021/12/30 06:10:06;;;;;;;27.90;18.55;;;;;;;11.97;30.07;99043.47;1751914;81;21539;-61
2021/12/30 06:12:34;;;;;;;27.85;18.00;;;;;;;11.92;30.21;99040.55;1749538;81;21010;-63
2021/12/30 06:15:01;;;;;;;29.23;18.82;;;;;;;11.98;30.39;99042.47;1754449;81;21559;-64
2021/12/30 06:17:29;;;;;;;31.95;20.57;;;;;;;12.06;30.32;99038.35;1750972;81;20970;-68
2021/12/30 06:19:56;;;;;;;36.83;20.70;;;;;;;12.13;30.17;99047.23;1744760;81;20982;-69
2021/12/30 06:22:22;;;;;;;34.45;20.43;;;;;;;12.12;30.24;99052.77;1752106;81;21104;-67
2021/12/30 06:24:49;;;;;;;31.50;19.60;;;;;;;12.19;30.14;99050.48;1751277;81;21454;-68
2021/12/30 06:27:15;;;;;;;29.52;19.35;;;;;;;12.18;30.12;99051.98;1757476;80;21116;-67
2021/12/30 06:29:42;;;;;;;33.13;21.55;;;;;;;12.10;30.18;99058.27;1765671;80;21133;-68
2021/12/30 06:32:08;;;;;;;36.98;21.10;;;;;;;12.10;30.28;99062.77;1752490;80;20961;-67
2021/12/30 06:34:36;;;;;;;31.60;20.35;;;;;;;12.23;30.15;99063.73;1761590;80;21559;-66
2021/12/30 06:37:03;;;;;;;32.03;20.02;;;;;;;12.33;30.04;99068.77;1753432;80;20982;-68
2021/12/30 06:39:30;;;;;;;31.35;20.88;;;;;;;12.31;30.13;99080.95;1760144;80;21101;-69
2021/12/30 06:41:56;;;;;;;29.37;20.48;;;;;;;12.43;30.11;99088.45;1752771;80;21427;-67
2021/12/30 06:44:23;;;;;;;36.60;20.95;;;;;;;12.51;30.03;99093.16;1759707;80;20939;-67
2021/12/30 06:46:56;;;;;;;29.32;19.17;;;;;;;12.58;29.98;99096.70;1759131;80;21509;-67
2021/12/30 06:49:20;;;;;;;31.95;20.60;;;;;;;12.61;29.99;99094.98;1760535;80;20959;-68
2021/12/30 06:51:47;;;;;;;32.70;22.00;;;;;;;12.62;29.99;99098.48;1754287;80;20911;-68
2021/12/30 06:54:13;;;;;;;33.15;20.72;;;;;;;12.69;29.97;99104.19;1759102;80;21185;-68
2021/12/30 06:56:40;;;;;;;32.33;20.25;;;;;;;12.73;29.89;99099.27;1705843;82;20998;-68
2021/12/30 06:59:07;;;;;;;31.65;20.32;;;;;;;12.82;29.87;99104.80;1730279;82;21435;-67
2021/12/30 07:01:33;;;;;;;30.37;20.62;;;;;;;12.94;29.74;99105.91;1715601;82;21047;-67
2021/12/30 07:03:59;;;;;;;37.10;23.27;;;;;;;12.80;29.84;99106.31;1763896;81;21015;-69
2021/12/30 07:06:26;;;;;;;41.85;26.50;;;;;;;12.83;29.89;99109.09;1754700;79;21056;-67
2021/12/30 07:08:53;;;;;;;37.88;23.62;;;;;;;12.87;29.84;99108.55;1765148;79;20947;-67
2021/12/30 07:11:19;;;;;;;36.17;22.05;;;;;;;12.96;29.72;99108.70;1755917;79;21448;-66
2021/12/30 07:13:46;;;;;;;38.65;22.58;;;;;;;12.93;29.76;99109.08;1752742;81;21513;-67
2021/12/30 07:16:12;;;;;;;37.88;22.95;;;;;;;12.82;29.81;99108.80;1763965;81;20947;-69
2021/12/30 07:18:39;;;;;;;35.40;23.07;;;;;;;12.63;30.09;99112.95;1754741;81;21111;-67
2021/12/30 07:21:06;;;;;;;40.98;24.00;;;;;;;12.63;30.23;99118.80;1752603;80;20990;-67
2021/12/30 07:23:32;;;;;;;37.78;22.13;;;;;;;12.60;30.32;99113.33;1764137;81;21583;-68
2021/12/30 07:25:59;;;;;;;38.53;24.00;;;;;;;12.60;30.39;99120.00;1763649;79;21030;-66
2021/12/30 07:28:25;;;;;;;39.55;24.07;;;;;;;12.64;30.37;99119.13;1760347;80;20947;-67
2021/12/30 07:30:52;;;;;;;37.23;22.87;;;;;;;12.57;30.49;99112.88;1753609;81;21097;-67
2021/12/30 07:33:18;;;;;;;40.03;23.62;;;;;;;12.54;30.53;99115.42;1760343;81;20944;-67
2021/12/30 07:35:44;;;;;;;39.42;22.90;;;;;;;12.61;30.46;99123.00;1758922;81;20987;-67
2021/12/30 07:38:11;;;;;;;45.30;25.05;;;;;;;12.69;30.37;99127.38;1766077;81;21043;-68
2021/12/30 07:40:37;;;;;;;41.70;24.32;;;;;;;12.74;30.40;99130.29;1756749;79;20956;-66
2021/12/30 07:43:04;;;;;;;40.73;24.07;;;;;;;12.98;30.20;99134.69;1765677;79;21149;-69
2021/12/30 07:45:30;;;;;;;40.12;24.85;;;;;;;13.03;30.12;99132.80;1748302;81;21548;-67
2021/12/30 07:47:57;;;;;;;41.98;24.52;;;;;;;12.83;30.28;99142.47;1754564;80;21026;-68
2021/12/30 07:50:23;;;;;;;38.15;23.25;;;;;;;12.75;30.37;99139.42;1766176;79;21418;-66
2021/12/30 07:52:50;;;;;;;41.90;24.90;;;;;;;12.66;30.51;99129.09;1794738;79;20859;-66
2021/12/30 07:55:16;;;;;;;43.38;24.37;;;;;;;12.69;30.57;99126.04;1783059;79;21030;-67
2021/12/30 07:57:43;;;;;;;41.35;24.60;;;;;;;12.79;30.52;99133.20;1795441;79;21560;-68
2021/12/30 08:00:13;;;;;;;41.77;23.87;;;;;;;12.83;30.57;99129.95;1787591;79;20915;-66
2021/12/30 08:02:42;;;;;;;40.33;23.57;;;;;;;12.91;30.58;99128.48;1793016;79;20946;-70
2021/12/30 08:05:14;;;;;;;39.98;23.65;;;;;;;12.84;30.54;99125.45;1796374;79;21003;-67
2021/12/30 08:07:42;;;;;;;44.10;24.85;;;;;;;12.84;30.53;99122.77;1797806;79;21883;-66
2021/12/30 08:10:12;;;;;;;43.92;25.02;;;;;;;12.81;30.63;99132.50;1798454;79;21501;-66
2021/12/30 08:12:40;;;;;;;43.78;25.80;;;;;;;12.92;30.62;99136.81;1800021;79;20989;-66
2021/12/30 08:15:07;;;;;;;42.15;26.30;;;;;;;13.06;30.46;99143.59;1798067;79;20970;-67
2021/12/30 08:17:35;;;;;;;44.25;25.57;;;;;;;13.08;30.41;99144.25;1791416;79;21516;-66
2021/12/30 08:20:03;;;;;;;40.55;23.87;;;;;;;13.16;30.31;99146.27;1784027;79;21142;-64
2021/12/30 08:22:30;;;;;;;39.40;23.55;;;;;;;13.26;30.26;99154.77;1787821;79;21038;-64
2021/12/30 08:24:56;;;;;;;45.00;24.63;;;;;;;13.32;30.18;99140.61;1792089;79;20986;-67
2021/12/30 08:27:23;;;;;;;44.05;25.17;;;;;;;13.33;30.15;99136.09;1790991;79;21556;-64
2021/12/30 08:29:49;;;;;;;42.48;25.32;;;;;;;13.18;30.23;99130.05;1789199;79;21017;-65
2021/12/30 08:32:16;;;;;;;47.03;25.30;;;;;;;13.10;30.37;99124.84;1786273;79;21111;-69
2021/12/30 08:34:44;;;;;;;46.80;26.40;;;;;;;13.06;30.42;99121.73;1799976;79;20995;-70
2021/12/30 08:37:12;;;;;;;42.70;24.92;;;;;;;12.91;30.64;99130.31;1793945;79;21010;-69
2021/12/30 08:39:40;;;;;;;47.70;25.57;;;;;;;13.05;30.78;99132.59;1785627;79;20951;-68
2021/12/30 08:42:19;;;;;;;39.35;23.65;;;;;;;13.12;30.58;99123.63;1782528;79;20994;-71
2021/12/30 08:44:46;;;;;;;43.30;23.45;;;;;;;13.23;30.52;99136.45;1775107;79;21200;-69
2021/12/30 08:47:13;;;;;;;38.67;23.30;;;;;;;13.28;30.39;99139.36;1786676;79;21065;-68
2021/12/30 08:49:41;;;;;;;38.88;24.47;;;;;;;13.19;30.36;99135.71;1789775;79;20973;-70
2021/12/30 08:52:09;;;;;;;45.12;26.07;;;;;;;13.20;30.27;99134.67;1777368;79;20985;-70
2021/12/30 08:54:36;;;;;;;41.55;24.07;;;;;;;13.19;30.33;99132.50;1777108;79;21128;-69
2021/12/30 08:57:04;;;;;;;44.27;25.60;;;;;;;13.15;30.43;99131.77;1783340;78;21131;-69
2021/12/30 08:59:31;;;;;;;40.78;23.65;;;;;;;13.17;30.48;99131.88;1735510;80;21496;-69
2021/12/30 09:01:58;;;;;;;38.30;23.35;;;;;;;13.40;30.38;99133.78;1787708;79;20979;-68
2021/12/30 09:04:26;;;;;;;44.60;27.27;;;;;;;13.53;30.31;99136.53;1785210;79;22324;-67
2021/12/30 09:06:54;;;;;;;43.70;26.23;;;;;;;13.55;30.20;99137.69;1779515;78;21564;-68
2021/12/30 09:09:24;;;;;;;43.87;24.87;;;;;;;13.46;30.26;99130.83;1790503;79;21079;-67
2021/12/30 09:11:50;;;;;;;40.35;23.47;;;;;;;13.40;30.37;99121.75;1783893;79;21529;-68
2021/12/30 09:14:18;;;;;;;46.18;26.17;;;;;;;13.46;30.34;99128.16;1790894;78;21584;-68
2021/12/30 09:16:48;;;;;;;47.27;26.23;;;;;;;13.45;30.33;99119.31;1780637;78;21466;-69
2021/12/30 09:19:16;;;;;;;44.58;24.98;;;;;;;13.57;30.28;99127.11;1779372;78;21035;-67
2021/12/30 09:21:46;;;;;;;43.92;24.70;;;;;;;13.53;30.25;99129.84;1788861;78;20951;-68
2021/12/30 09:24:12;;;;;;;48.20;26.07;;;;;;;13.56;30.25;99128.12;1795400;79;21022;-70
2021/12/30 09:26:39;;;;;;;41.75;24.23;;;;;;;13.47;30.34;99123.97;1791047;79;21058;-69
2021/12/30 09:29:10;;;;;;;42.10;24.85;;;;;;;13.38;30.55;99129.66;1793523;78;21051;-68
2021/12/30 09:31:34;;;;;;;42.48;26.50;;;;;;;13.39;30.59;99123.30;1788005;78;21549;-67
2021/12/30 09:34:01;;;;;;;46.95;25.62;;;;;;;13.34;30.57;99117.72;1789386;78;21134;-69
2021/12/30 09:36:30;;;;;;;50.03;25.75;;;;;;;13.41;30.62;99112.73;1785741;79;21004;-69
2021/12/30 09:38:56;;;;;;;46.08;26.15;;;;;;;13.45;30.59;99093.93;1777213;78;20961;-69
2021/12/30 09:41:23;;;;;;;46.28;25.12;;;;;;;13.67;30.50;99099.17;1793643;79;21001;-69
2021/12/30 09:43:49;;;;;;;50.05;27.40;;;;;;;13.94;30.21;99092.41;1788880;78;20907;-68
2021/12/30 09:46:16;;;;;;;49.15;27.35;;;;;;;14.09;30.06;99095.74;1790098;78;21081;-69
2021/12/30 09:48:43;;;;;;;53.25;29.55;;;;;;;14.18;29.95;99091.04;1706431;78;21077;-70
2021/12/30 09:51:10;;;;;;;51.13;28.67;;;;;;;14.29;29.93;99100.33;1792582;78;20966;-69
2021/12/30 09:53:36;;;;;;;51.33;30.23;;;;;;;14.35;29.80;99095.51;1802673;79;21028;-70
2021/12/30 09:56:04;;;;;;;53.70;29.92;;;;;;;14.16;29.90;99092.56;1801336;78;21465;-67
2021/12/30 09:58:31;;;;;;;56.20;28.98;;;;;;;14.20;30.00;99090.31;1802814;78;21967;-68
2021/12/30 10:00:57;;;;;;;54.75;27.90;;;;;;;14.06;30.07;99092.63;1808933;78;20993;-69
2021/12/30 10:03:24;;;;;;;50.58;29.90;;;;;;;14.08;30.23;99098.60;1807703;78;21030;-66
2021/12/30 10:05:50;;;;;;;62.27;30.88;;;;;;;14.09;30.31;99097.08;1804563;78;21527;-69
2021/12/30 10:08:24;;;;;;;59.10;30.77;;;;;;;14.11;30.29;99096.36;1807732;78;21050;-69
2021/12/30 10:10:56;;;;;;;57.20;31.25;;;;;;;14.19;30.26;99097.52;1764514;80;21152;-69
2021/12/30 10:13:29;;;;;;;56.08;29.20;;;;;;;14.30;30.20;99096.60;1734868;82;20950;-69
2021/12/30 10:16:00;;;;;;;54.80;30.45;;;;;;;14.44;30.04;99092.45;1732451;82;21128;-70
2021/12/30 10:18:50;;;;;;;54.63;30.30;;;;;;;14.37;30.03;99088.09;1742354;80;21057;-68
2021/12/30 10:21:25;;;;;;;53.50;29.50;;;;;;;14.32;30.16;99088.72;1802609;79;21099;-69
2021/12/30 10:23:55;;;;;;;52.80;29.23;;;;;;;14.40;30.18;99089.86;1803775;79;21145;-70
2021/12/30 10:26:21;;;;;;;56.65;29.95;;;;;;;14.37;30.14;99084.91;1805066;78;20919;-70
2021/12/30 10:28:58;;;;;;;54.55;31.12;;;;;;;14.33;30.19;99090.88;1798191;79;20930;-72
2021/12/30 10:31:28;;;;;;;55.80;31.15;;;;;;;14.30;30.25;99085.39;1806974;78;20994;-69
2021/12/30 10:34:01;;;;;;;55.63;30.40;;;;;;;14.27;30.38;99087.13;1802174;78;21073;-68
2021/12/30 10:36:44;;;;;;;52.78;29.37;;;;;;;14.28;30.45;99083.44;1803153;79;21138;-70
2021/12/30 10:39:31;;;;;;;50.90;29.12;;;;;;;14.32;30.56;99086.55;1803668;78;21531;-69
2021/12/30 10:42:19;;;;;;;61.35;30.57;;;;;;;14.44;30.59;99074.23;1808945;79;20981;-70
2021/12/30 10:45:00;;;;;;;56.10;29.45;;;;;;;14.46;30.60;99073.00;1801809;79;21063;-68
2021/12/30 10:47:29;;;;;;;59.58;31.85;;;;;;;14.48;30.71;99073.61;1801180;78;21099;-68
2021/12/30 10:50:06;;;;;;;63.68;33.83;;;;;;;14.52;30.72;99070.82;1790587;78;21554;-69
2021/12/30 10:52:32;;;;;;;62.60;33.20;;;;;;;14.65;30.69;99069.48;1795387;79;21034;-67
2021/12/30 10:55:00;;;;;;;61.73;34.92;;;;;;;14.81;30.48;99058.88;1791569;79;21622;-64
2021/12/30 10:57:30;;;;;;;70.37;37.10;;;;;;;14.80;30.45;99055.91;1811415;78;21018;-67
2021/12/30 10:59:56;;;;;;;64.90;35.63;;;;;;;14.79;30.55;99067.12;1799032;78;21036;-66
2021/12/30 11:02:26;;;;;;;73.05;35.17;;;;;;;14.91;30.52;99063.83;1804534;78;21154;-69
2021/12/30 11:05:00;;;;;;;61.85;33.65;;;;;;;14.88;30.48;99060.22;1797877;79;20938;-67
2021/12/30 11:07:51;;;;;;;65.97;36.42;;;;;;;14.81;30.60;99060.20;1808237;79;21420;-67
2021/12/30 11:10:31;;;;;;;66.07;34.70;;;;;;;14.91;30.60;99055.80;1807486;78;21454;-68
2021/12/30 11:13:10;;;;;;;61.53;32.98;;;;;;;14.98;30.49;99052.58;1796455;78;20983;-65
2021/12/30 11:15:36;;;;;;;62.00;32.78;;;;;;;15.03;30.47;99051.44;1804613;79;21149;-66
2021/12/30 11:18:10;;;;;;;69.62;36.25;;;;;;;15.02;30.49;99051.12;1804274;78;21068;-65
2021/12/30 11:20:40;;;;;;;63.35;34.53;;;;;;;15.08;30.56;99051.13;1799142;78;22496;-67